sensor_id;sensor_type;location;lat;lon;timestamp;P1;durP1;ratioP1;P2;durP2;ratioP2
54947;SDS011;41113;41.882;12.530;2023-06-26T00:02:01;8.98;;;4.05;;
54947;SDS011;41113;41.882;12.530;2023-06-26T00:04:27;9.02;;;4.10;;
54947;SDS011;41113;41.882;12.530;2023-06-26T00:06:52;9.57;;;4.25;;
54947;SDS011;41113;41.882;12.530;2023-06-26T00:09:17;10.02;;;4.20;;
54947;SDS011;41113;41.882;12.530;2023-06-26T00:11:43;9.40;;;4.28;;
54947;SDS011;41113;41.882;12.530;2023-06-26T00:14:08;9.65;;;4.40;;
54947;SDS011;41113;41.882;12.530;2023-06-26T00:16:33;9.40;;;4.00;;
54947;SDS011;41113;41.882;12.530;2023-06-26T00:18:59;10.07;;;4.32;;
54947;SDS011;41113;41.882;12.530;2023-06-26T00:21:25;9.90;;;4.60;;
54947;SDS011;41113;41.882;12.530;2023-06-26T00:23:50;8.75;;;4.35;;
54947;SDS011;41113;41.882;12.530;2023-06-26T00:26:16;9.93;;;4.47;;
54947;SDS011;41113;41.882;12.530;2023-06-26T00:28:41;9.18;;;4.30;;
54947;SDS011;41113;41.882;12.530;2023-06-26T00:31:07;10.55;;;4.47;;
54947;SDS011;41113;41.882;12.530;2023-06-26T00:33:32;9.50;;;4.68;;
54947;SDS011;41113;41.882;12.530;2023-06-26T00:35:57;10.10;;;4.28;;
54947;SDS011;41113;41.882;12.530;2023-06-26T00:38:24;9.77;;;4.32;;
54947;SDS011;41113;41.882;12.530;2023-06-26T00:40:49;9.52;;;4.57;;
54947;SDS011;41113;41.882;12.530;2023-06-26T00:43:14;9.98;;;4.00;;
54947;SDS011;41113;41.882;12.530;2023-06-26T00:45:40;9.60;;;4.15;;
54947;SDS011;41113;41.882;12.530;2023-06-26T00:48:05;9.45;;;4.35;;
54947;SDS011;41113;41.882;12.530;2023-06-26T00:50:33;9.82;;;4.63;;
54947;SDS011;41113;41.882;12.530;2023-06-26T00:52:58;10.02;;;4.20;;
54947;SDS011;41113;41.882;12.530;2023-06-26T00:55:26;9.60;;;4.70;;
54947;SDS011;41113;41.882;12.530;2023-06-26T00:57:52;9.60;;;4.35;;
54947;SDS011;41113;41.882;12.530;2023-06-26T01:00:19;10.38;;;4.50;;
54947;SDS011;41113;41.882;12.530;2023-06-26T01:02:45;11.30;;;4.63;;
54947;SDS011;41113;41.882;12.530;2023-06-26T01:05:11;9.90;;;4.40;;
54947;SDS011;41113;41.882;12.530;2023-06-26T01:07:38;10.60;;;4.72;;
54947;SDS011;41113;41.882;12.530;2023-06-26T01:10:07;9.45;;;4.05;;
54947;SDS011;41113;41.882;12.530;2023-06-26T01:12:33;9.95;;;4.47;;
54947;SDS011;41113;41.882;12.530;2023-06-26T01:14:59;8.77;;;4.35;;
54947;SDS011;41113;41.882;12.530;2023-06-26T01:17:25;9.25;;;4.50;;
54947;SDS011;41113;41.882;12.530;2023-06-26T01:19:56;9.60;;;4.63;;
54947;SDS011;41113;41.882;12.530;2023-06-26T01:22:39;9.60;;;4.53;;
54947;SDS011;41113;41.882;12.530;2023-06-26T01:25:17;10.60;;;4.70;;
54947;SDS011;41113;41.882;12.530;2023-06-26T01:27:54;9.70;;;4.40;;
54947;SDS011;41113;41.882;12.530;2023-06-26T01:30:21;10.70;;;4.80;;
54947;SDS011;41113;41.882;12.530;2023-06-26T01:32:47;10.93;;;4.90;;
54947;SDS011;41113;41.882;12.530;2023-06-26T01:35:13;12.35;;;4.20;;
54947;SDS011;41113;41.882;12.530;2023-06-26T01:37:40;9.88;;;4.32;;
54947;SDS011;41113;41.882;12.530;2023-06-26T01:40:05;10.95;;;4.65;;
54947;SDS011;41113;41.882;12.530;2023-06-26T01:42:32;9.77;;;4.57;;
54947;SDS011;41113;41.882;12.530;2023-06-26T01:44:58;9.55;;;4.10;;
54947;SDS011;41113;41.882;12.530;2023-06-26T01:47:37;9.30;;;4.53;;
54947;SDS011;41113;41.882;12.530;2023-06-26T01:50:12;11.23;;;4.38;;
54947;SDS011;41113;41.882;12.530;2023-06-26T01:52:53;9.38;;;4.40;;
54947;SDS011;41113;41.882;12.530;2023-06-26T01:55:31;8.98;;;4.45;;
54947;SDS011;41113;41.882;12.530;2023-06-26T01:58:01;10.98;;;4.95;;
54947;SDS011;41113;41.882;12.530;2023-06-26T02:00:26;10.75;;;5.22;;
54947;SDS011;41113;41.882;12.530;2023-06-26T02:02:52;10.05;;;5.13;;
54947;SDS011;41113;41.882;12.530;2023-06-26T02:05:18;9.98;;;4.88;;
54947;SDS011;41113;41.882;12.530;2023-06-26T02:07:43;10.15;;;4.85;;
54947;SDS011;41113;41.882;12.530;2023-06-26T02:10:09;10.90;;;4.82;;
54947;SDS011;41113;41.882;12.530;2023-06-26T02:12:35;10.77;;;4.50;;
54947;SDS011;41113;41.882;12.530;2023-06-26T02:15:01;10.15;;;4.55;;
54947;SDS011;41113;41.882;12.530;2023-06-26T02:17:27;10.98;;;4.97;;
54947;SDS011;41113;41.882;12.530;2023-06-26T02:19:52;10.77;;;4.57;;
54947;SDS011;41113;41.882;12.530;2023-06-26T02:22:18;10.88;;;4.95;;
54947;SDS011;41113;41.882;12.530;2023-06-26T02:24:43;10.95;;;5.13;;
54947;SDS011;41113;41.882;12.530;2023-06-26T02:27:09;11.18;;;4.70;;
54947;SDS011;41113;41.882;12.530;2023-06-26T02:29:34;9.82;;;4.72;;
54947;SDS011;41113;41.882;12.530;2023-06-26T02:32:00;9.45;;;4.60;;
54947;SDS011;41113;41.882;12.530;2023-06-26T02:34:26;9.85;;;4.97;;
54947;SDS011;41113;41.882;12.530;2023-06-26T02:36:51;9.50;;;4.53;;
54947;SDS011;41113;41.882;12.530;2023-06-26T02:39:19;8.82;;;4.25;;
54947;SDS011;41113;41.882;12.530;2023-06-26T02:41:45;10.52;;;4.80;;
54947;SDS011;41113;41.882;12.530;2023-06-26T02:44:10;9.55;;;4.50;;
54947;SDS011;41113;41.882;12.530;2023-06-26T02:46:37;11.18;;;5.00;;
54947;SDS011;41113;41.882;12.530;2023-06-26T02:49:02;13.40;;;4.90;;
54947;SDS011;41113;41.882;12.530;2023-06-26T02:51:27;9.75;;;5.10;;
54947;SDS011;41113;41.882;12.530;2023-06-26T02:53:53;11.07;;;6.40;;
54947;SDS011;41113;41.882;12.530;2023-06-26T02:56:18;12.45;;;6.63;;
54947;SDS011;41113;41.882;12.530;2023-06-26T02:58:43;12.13;;;6.55;;
54947;SDS011;41113;41.882;12.530;2023-06-26T03:01:09;11.45;;;6.18;;
54947;SDS011;41113;41.882;12.530;2023-06-26T03:03:34;10.88;;;5.63;;
54947;SDS011;41113;41.882;12.530;2023-06-26T03:06:05;11.93;;;6.20;;
54947;SDS011;41113;41.882;12.530;2023-06-26T03:08:36;11.63;;;5.95;;
54947;SDS011;41113;41.882;12.530;2023-06-26T03:11:02;12.07;;;6.10;;
54947;SDS011;41113;41.882;12.530;2023-06-26T03:13:27;10.85;;;5.50;;
54947;SDS011;41113;41.882;12.530;2023-06-26T03:15:53;10.57;;;5.38;;
54947;SDS011;41113;41.882;12.530;2023-06-26T03:18:18;12.27;;;6.07;;
54947;SDS011;41113;41.882;12.530;2023-06-26T03:20:43;13.27;;;6.90;;
54947;SDS011;41113;41.882;12.530;2023-06-26T03:23:09;11.80;;;6.25;;
54947;SDS011;41113;41.882;12.530;2023-06-26T03:25:34;14.52;;;5.75;;
54947;SDS011;41113;41.882;12.530;2023-06-26T03:27:59;11.57;;;5.50;;
54947;SDS011;41113;41.882;12.530;2023-06-26T03:30:25;12.80;;;6.07;;
54947;SDS011;41113;41.882;12.530;2023-06-26T03:32:50;12.93;;;6.13;;
54947;SDS011;41113;41.882;12.530;2023-06-26T03:35:15;13.52;;;6.05;;
54947;SDS011;41113;41.882;12.530;2023-06-26T03:37:41;13.95;;;6.85;;
54947;SDS011;41113;41.882;12.530;2023-06-26T03:40:06;13.70;;;6.10;;
54947;SDS011;41113;41.882;12.530;2023-06-26T03:42:32;11.88;;;5.43;;
54947;SDS011;41113;41.882;12.530;2023-06-26T03:44:58;11.85;;;5.53;;
54947;SDS011;41113;41.882;12.530;2023-06-26T03:47:23;14.90;;;6.22;;
54947;SDS011;41113;41.882;12.530;2023-06-26T03:49:49;12.10;;;5.30;;
54947;SDS011;41113;41.882;12.530;2023-06-26T03:52:14;11.55;;;5.07;;
54947;SDS011;41113;41.882;12.530;2023-06-26T03:54:39;11.25;;;5.53;;
54947;SDS011;41113;41.882;12.530;2023-06-26T03:57:05;10.52;;;5.47;;
54947;SDS011;41113;41.882;12.530;2023-06-26T03:59:30;11.65;;;5.95;;
54947;SDS011;41113;41.882;12.530;2023-06-26T04:01:55;9.77;;;4.78;;
54947;SDS011;41113;41.882;12.530;2023-06-26T04:04:21;12.20;;;5.57;;
54947;SDS011;41113;41.882;12.530;2023-06-26T04:06:47;11.30;;;5.93;;
54947;SDS011;41113;41.882;12.530;2023-06-26T04:09:12;11.52;;;5.55;;
54947;SDS011;41113;41.882;12.530;2023-06-26T04:11:37;11.68;;;5.10;;
54947;SDS011;41113;41.882;12.530;2023-06-26T04:14:03;11.25;;;5.13;;
54947;SDS011;41113;41.882;12.530;2023-06-26T04:16:28;9.77;;;4.80;;
54947;SDS011;41113;41.882;12.530;2023-06-26T04:18:54;12.85;;;4.63;;
54947;SDS011;41113;41.882;12.530;2023-06-26T04:21:21;10.35;;;5.05;;
54947;SDS011;41113;41.882;12.530;2023-06-26T04:23:46;9.90;;;4.88;;
54947;SDS011;41113;41.882;12.530;2023-06-26T04:26:12;10.93;;;5.40;;
54947;SDS011;41113;41.882;12.530;2023-06-26T04:28:39;15.52;;;7.22;;
54947;SDS011;41113;41.882;12.530;2023-06-26T04:31:05;12.50;;;4.90;;
54947;SDS011;41113;41.882;12.530;2023-06-26T04:33:30;12.00;;;6.03;;
54947;SDS011;41113;41.882;12.530;2023-06-26T04:35:56;12.40;;;5.85;;
54947;SDS011;41113;41.882;12.530;2023-06-26T04:38:21;12.13;;;5.95;;
54947;SDS011;41113;41.882;12.530;2023-06-26T04:40:47;11.90;;;5.30;;
54947;SDS011;41113;41.882;12.530;2023-06-26T04:43:13;10.52;;;4.75;;
54947;SDS011;41113;41.882;12.530;2023-06-26T04:45:39;11.35;;;4.88;;
54947;SDS011;41113;41.882;12.530;2023-06-26T04:48:04;11.98;;;5.25;;
54947;SDS011;41113;41.882;12.530;2023-06-26T04:50:31;9.43;;;4.32;;
54947;SDS011;41113;41.882;12.530;2023-06-26T04:52:58;10.70;;;4.93;;
54947;SDS011;41113;41.882;12.530;2023-06-26T04:55:24;11.35;;;5.10;;
54947;SDS011;41113;41.882;12.530;2023-06-26T04:57:50;11.45;;;5.28;;
54947;SDS011;41113;41.882;12.530;2023-06-26T05:00:16;9.65;;;4.65;;
54947;SDS011;41113;41.882;12.530;2023-06-26T05:02:41;10.23;;;5.20;;
54947;SDS011;41113;41.882;12.530;2023-06-26T05:05:07;10.77;;;5.30;;
54947;SDS011;41113;41.882;12.530;2023-06-26T05:07:33;8.63;;;4.13;;
54947;SDS011;41113;41.882;12.530;2023-06-26T05:09:58;11.13;;;4.65;;
54947;SDS011;41113;41.882;12.530;2023-06-26T05:12:24;10.10;;;4.93;;
54947;SDS011;41113;41.882;12.530;2023-06-26T05:14:49;12.98;;;5.05;;
54947;SDS011;41113;41.882;12.530;2023-06-26T05:17:14;11.75;;;5.47;;
54947;SDS011;41113;41.882;12.530;2023-06-26T05:19:40;9.45;;;4.85;;
54947;SDS011;41113;41.882;12.530;2023-06-26T05:22:05;11.50;;;5.07;;
54947;SDS011;41113;41.882;12.530;2023-06-26T05:24:35;13.57;;;4.82;;
54947;SDS011;41113;41.882;12.530;2023-06-26T05:27:01;9.95;;;5.00;;
54947;SDS011;41113;41.882;12.530;2023-06-26T05:29:27;10.57;;;5.03;;
54947;SDS011;41113;41.882;12.530;2023-06-26T05:31:56;9.98;;;4.50;;
54947;SDS011;41113;41.882;12.530;2023-06-26T05:34:22;19.23;;;6.03;;
54947;SDS011;41113;41.882;12.530;2023-06-26T05:36:52;19.70;;;5.65;;
54947;SDS011;41113;41.882;12.530;2023-06-26T05:39:22;11.00;;;4.50;;
54947;SDS011;41113;41.882;12.530;2023-06-26T05:41:48;10.45;;;4.75;;
54947;SDS011;41113;41.882;12.530;2023-06-26T05:44:13;10.38;;;4.50;;
54947;SDS011;41113;41.882;12.530;2023-06-26T05:46:39;11.80;;;5.20;;
54947;SDS011;41113;41.882;12.530;2023-06-26T05:49:04;12.07;;;4.88;;
54947;SDS011;41113;41.882;12.530;2023-06-26T05:51:29;10.55;;;5.15;;
54947;SDS011;41113;41.882;12.530;2023-06-26T05:53:55;9.70;;;5.00;;
54947;SDS011;41113;41.882;12.530;2023-06-26T05:56:21;10.60;;;4.65;;
54947;SDS011;41113;41.882;12.530;2023-06-26T05:58:47;9.30;;;4.40;;
54947;SDS011;41113;41.882;12.530;2023-06-26T06:01:12;10.20;;;4.70;;
54947;SDS011;41113;41.882;12.530;2023-06-26T06:03:38;11.38;;;4.50;;
54947;SDS011;41113;41.882;12.530;2023-06-26T06:06:04;10.73;;;4.88;;
54947;SDS011;41113;41.882;12.530;2023-06-26T06:08:29;12.73;;;5.25;;
54947;SDS011;41113;41.882;12.530;2023-06-26T06:10:55;10.70;;;4.95;;
54947;SDS011;41113;41.882;12.530;2023-06-26T06:13:20;10.00;;;4.25;;
54947;SDS011;41113;41.882;12.530;2023-06-26T06:15:46;11.13;;;4.95;;
54947;SDS011;41113;41.882;12.530;2023-06-26T06:18:11;12.00;;;4.90;;
54947;SDS011;41113;41.882;12.530;2023-06-26T06:20:36;11.70;;;4.32;;
54947;SDS011;41113;41.882;12.530;2023-06-26T06:23:02;9.32;;;4.55;;
54947;SDS011;41113;41.882;12.530;2023-06-26T06:25:27;10.02;;;4.70;;
54947;SDS011;41113;41.882;12.530;2023-06-26T06:27:52;10.88;;;4.72;;
54947;SDS011;41113;41.882;12.530;2023-06-26T06:30:18;9.55;;;4.45;;
54947;SDS011;41113;41.882;12.530;2023-06-26T06:32:43;9.85;;;4.40;;
54947;SDS011;41113;41.882;12.530;2023-06-26T06:35:09;11.93;;;4.85;;
54947;SDS011;41113;41.882;12.530;2023-06-26T06:37:35;12.52;;;5.13;;
54947;SDS011;41113;41.882;12.530;2023-06-26T06:40:02;9.57;;;4.97;;
54947;SDS011;41113;41.882;12.530;2023-06-26T06:42:28;10.40;;;4.82;;
54947;SDS011;41113;41.882;12.530;2023-06-26T06:44:54;9.15;;;4.28;;
54947;SDS011;41113;41.882;12.530;2023-06-26T06:47:20;10.35;;;4.97;;
54947;SDS011;41113;41.882;12.530;2023-06-26T06:49:45;11.13;;;4.00;;
54947;SDS011;41113;41.882;12.530;2023-06-26T06:52:11;9.95;;;4.85;;
54947;SDS011;41113;41.882;12.530;2023-06-26T06:54:52;12.15;;;5.45;;
54947;SDS011;41113;41.882;12.530;2023-06-26T06:57:18;10.35;;;5.18;;
54947;SDS011;41113;41.882;12.530;2023-06-26T06:59:44;11.23;;;5.15;;
54947;SDS011;41113;41.882;12.530;2023-06-26T07:02:09;12.05;;;4.50;;
54947;SDS011;41113;41.882;12.530;2023-06-26T07:04:34;10.40;;;4.82;;
54947;SDS011;41113;41.882;12.530;2023-06-26T07:07:00;12.05;;;6.47;;
54947;SDS011;41113;41.882;12.530;2023-06-26T07:09:25;10.50;;;5.00;;
54947;SDS011;41113;41.882;12.530;2023-06-26T07:11:50;12.10;;;5.30;;
54947;SDS011;41113;41.882;12.530;2023-06-26T07:14:16;9.57;;;4.93;;
54947;SDS011;41113;41.882;12.530;2023-06-26T07:16:41;13.02;;;5.55;;
54947;SDS011;41113;41.882;12.530;2023-06-26T07:19:06;11.43;;;4.32;;
54947;SDS011;41113;41.882;12.530;2023-06-26T07:21:32;11.45;;;4.80;;
54947;SDS011;41113;41.882;12.530;2023-06-26T07:23:57;14.13;;;5.05;;
54947;SDS011;41113;41.882;12.530;2023-06-26T07:26:22;11.50;;;5.50;;
54947;SDS011;41113;41.882;12.530;2023-06-26T07:28:48;9.18;;;4.40;;
54947;SDS011;41113;41.882;12.530;2023-06-26T07:31:14;10.73;;;4.63;;
54947;SDS011;41113;41.882;12.530;2023-06-26T07:33:41;11.02;;;4.80;;
54947;SDS011;41113;41.882;12.530;2023-06-26T07:36:07;11.70;;;4.50;;
54947;SDS011;41113;41.882;12.530;2023-06-26T07:38:33;10.95;;;5.20;;
54947;SDS011;41113;41.882;12.530;2023-06-26T07:40:58;9.88;;;4.88;;
54947;SDS011;41113;41.882;12.530;2023-06-26T07:43:23;11.68;;;4.85;;
54947;SDS011;41113;41.882;12.530;2023-06-26T07:45:49;10.65;;;4.88;;
54947;SDS011;41113;41.882;12.530;2023-06-26T07:48:16;10.25;;;5.10;;
54947;SDS011;41113;41.882;12.530;2023-06-26T07:50:41;10.30;;;4.78;;
54947;SDS011;41113;41.882;12.530;2023-06-26T07:53:07;11.48;;;5.07;;
54947;SDS011;41113;41.882;12.530;2023-06-26T07:55:32;11.48;;;4.53;;
54947;SDS011;41113;41.882;12.530;2023-06-26T07:57:58;10.98;;;5.25;;
54947;SDS011;41113;41.882;12.530;2023-06-26T08:00:23;10.45;;;4.60;;
54947;SDS011;41113;41.882;12.530;2023-06-26T08:02:49;9.82;;;4.13;;
54947;SDS011;41113;41.882;12.530;2023-06-26T08:05:14;8.88;;;4.43;;
54947;SDS011;41113;41.882;12.530;2023-06-26T08:07:39;10.02;;;4.80;;
54947;SDS011;41113;41.882;12.530;2023-06-26T08:10:05;10.45;;;4.65;;
54947;SDS011;41113;41.882;12.530;2023-06-26T08:12:30;11.27;;;5.15;;
54947;SDS011;41113;41.882;12.530;2023-06-26T08:14:56;12.07;;;5.10;;
54947;SDS011;41113;41.882;12.530;2023-06-26T08:17:21;11.63;;;4.57;;
54947;SDS011;41113;41.882;12.530;2023-06-26T08:19:47;11.15;;;5.25;;
54947;SDS011;41113;41.882;12.530;2023-06-26T08:22:12;11.15;;;4.85;;
54947;SDS011;41113;41.882;12.530;2023-06-26T08:24:38;12.38;;;5.03;;
54947;SDS011;41113;41.882;12.530;2023-06-26T08:27:05;12.55;;;5.35;;
54947;SDS011;41113;41.882;12.530;2023-06-26T08:29:32;9.93;;;5.15;;
54947;SDS011;41113;41.882;12.530;2023-06-26T08:31:58;11.25;;;5.03;;
54947;SDS011;41113;41.882;12.530;2023-06-26T08:34:24;10.63;;;5.43;;
54947;SDS011;41113;41.882;12.530;2023-06-26T08:36:50;10.25;;;5.38;;
54947;SDS011;41113;41.882;12.530;2023-06-26T08:39:15;11.32;;;4.72;;
54947;SDS011;41113;41.882;12.530;2023-06-26T08:41:40;10.05;;;4.50;;
54947;SDS011;41113;41.882;12.530;2023-06-26T08:44:07;12.77;;;5.40;;
54947;SDS011;41113;41.882;12.530;2023-06-26T08:46:32;11.40;;;4.90;;
54947;SDS011;41113;41.882;12.530;2023-06-26T08:49:05;11.68;;;4.75;;
54947;SDS011;41113;41.882;12.530;2023-06-26T08:51:43;11.57;;;4.70;;
54947;SDS011;41113;41.882;12.530;2023-06-26T08:54:14;11.18;;;4.75;;
54947;SDS011;41113;41.882;12.530;2023-06-26T08:56:42;11.82;;;5.40;;
54947;SDS011;41113;41.882;12.530;2023-06-26T08:59:12;12.43;;;5.13;;
54947;SDS011;41113;41.882;12.530;2023-06-26T09:01:39;12.50;;;5.70;;
54947;SDS011;41113;41.882;12.530;2023-06-26T09:04:06;11.38;;;5.57;;
54947;SDS011;41113;41.882;12.530;2023-06-26T09:06:32;14.07;;;5.45;;
54947;SDS011;41113;41.882;12.530;2023-06-26T09:08:58;11.48;;;5.03;;
54947;SDS011;41113;41.882;12.530;2023-06-26T09:11:23;9.68;;;4.75;;
54947;SDS011;41113;41.882;12.530;2023-06-26T09:13:48;10.18;;;4.93;;
54947;SDS011;41113;41.882;12.530;2023-06-26T09:16:14;10.38;;;4.70;;
54947;SDS011;41113;41.882;12.530;2023-06-26T09:18:42;11.18;;;5.05;;
54947;SDS011;41113;41.882;12.530;2023-06-26T09:21:09;10.38;;;5.20;;
54947;SDS011;41113;41.882;12.530;2023-06-26T09:23:36;12.05;;;5.00;;
54947;SDS011;41113;41.882;12.530;2023-06-26T09:26:04;11.77;;;5.10;;
54947;SDS011;41113;41.882;12.530;2023-06-26T09:28:34;11.10;;;4.97;;
54947;SDS011;41113;41.882;12.530;2023-06-26T09:31:04;9.88;;;4.97;;
54947;SDS011;41113;41.882;12.530;2023-06-26T09:33:37;12.02;;;5.60;;
54947;SDS011;41113;41.882;12.530;2023-06-26T09:36:07;9.13;;;4.65;;
54947;SDS011;41113;41.882;12.530;2023-06-26T09:38:35;12.32;;;4.88;;
54947;SDS011;41113;41.882;12.530;2023-06-26T09:41:01;11.10;;;5.07;;
54947;SDS011;41113;41.882;12.530;2023-06-26T09:43:27;10.77;;;4.95;;
54947;SDS011;41113;41.882;12.530;2023-06-26T09:45:53;10.35;;;5.03;;
54947;SDS011;41113;41.882;12.530;2023-06-26T09:48:19;10.98;;;4.80;;
54947;SDS011;41113;41.882;12.530;2023-06-26T09:50:45;12.50;;;4.80;;
54947;SDS011;41113;41.882;12.530;2023-06-26T09:53:11;9.88;;;4.78;;
54947;SDS011;41113;41.882;12.530;2023-06-26T09:55:40;10.82;;;5.15;;
54947;SDS011;41113;41.882;12.530;2023-06-26T09:58:08;11.63;;;5.40;;
54947;SDS011;41113;41.882;12.530;2023-06-26T10:00:39;12.65;;;5.35;;
54947;SDS011;41113;41.882;12.530;2023-06-26T10:03:05;11.05;;;5.13;;
54947;SDS011;41113;41.882;12.530;2023-06-26T10:05:30;11.10;;;4.80;;
54947;SDS011;41113;41.882;12.530;2023-06-26T10:07:55;11.55;;;5.15;;
54947;SDS011;41113;41.882;12.530;2023-06-26T10:10:22;11.07;;;5.15;;
54947;SDS011;41113;41.882;12.530;2023-06-26T10:12:50;12.13;;;5.07;;
54947;SDS011;41113;41.882;12.530;2023-06-26T10:15:19;9.55;;;4.78;;
54947;SDS011;41113;41.882;12.530;2023-06-26T10:17:48;11.80;;;5.00;;
54947;SDS011;41113;41.882;12.530;2023-06-26T10:20:14;10.40;;;4.72;;
54947;SDS011;41113;41.882;12.530;2023-06-26T10:22:43;11.27;;;4.45;;
54947;SDS011;41113;41.882;12.530;2023-06-26T10:25:10;13.52;;;4.20;;
54947;SDS011;41113;41.882;12.530;2023-06-26T10:27:41;11.70;;;5.03;;
54947;SDS011;41113;41.882;12.530;2023-06-26T10:30:19;10.38;;;4.90;;
54947;SDS011;41113;41.882;12.530;2023-06-26T10:35:13;13.30;;;4.60;;
54947;SDS011;41113;41.882;12.530;2023-06-26T10:37:42;9.18;;;4.35;;
54947;SDS011;41113;41.882;12.530;2023-06-26T10:40:13;10.40;;;4.93;;
54947;SDS011;41113;41.882;12.530;2023-06-26T10:42:39;9.93;;;4.80;;
54947;SDS011;41113;41.882;12.530;2023-06-26T10:45:09;11.43;;;5.25;;
54947;SDS011;41113;41.882;12.530;2023-06-26T10:47:36;10.52;;;5.13;;
54947;SDS011;41113;41.882;12.530;2023-06-26T10:55:34;11.63;;;4.93;;
54947;SDS011;41113;41.882;12.530;2023-06-26T10:58:00;11.68;;;4.72;;
54947;SDS011;41113;41.882;12.530;2023-06-26T11:00:29;9.45;;;4.55;;
54947;SDS011;41113;41.882;12.530;2023-06-26T11:02:55;9.48;;;4.88;;
54947;SDS011;41113;41.882;12.530;2023-06-26T11:05:26;13.27;;;4.88;;
54947;SDS011;41113;41.882;12.530;2023-06-26T11:08:03;10.68;;;5.05;;
54947;SDS011;41113;41.882;12.530;2023-06-26T11:10:29;11.75;;;4.75;;
54947;SDS011;41113;41.882;12.530;2023-06-26T11:13:11;10.02;;;4.53;;
54947;SDS011;41113;41.882;12.530;2023-06-26T11:15:37;9.32;;;4.32;;
54947;SDS011;41113;41.882;12.530;2023-06-26T11:20:31;11.73;;;4.47;;
54947;SDS011;41113;41.882;12.530;2023-06-26T11:22:57;10.68;;;4.65;;
54947;SDS011;41113;41.882;12.530;2023-06-26T11:25:23;11.75;;;4.82;;
54947;SDS011;41113;41.882;12.530;2023-06-26T11:27:49;9.30;;;4.65;;
54947;SDS011;41113;41.882;12.530;2023-06-26T11:30:24;11.40;;;4.90;;
54947;SDS011;41113;41.882;12.530;2023-06-26T11:32:51;10.45;;;5.43;;
54947;SDS011;41113;41.882;12.530;2023-06-26T11:35:23;10.80;;;5.00;;
54947;SDS011;41113;41.882;12.530;2023-06-26T11:37:55;9.23;;;4.60;;
54947;SDS011;41113;41.882;12.530;2023-06-26T11:40:22;9.20;;;4.30;;
54947;SDS011;41113;41.882;12.530;2023-06-26T11:42:52;10.18;;;4.72;;
54947;SDS011;41113;41.882;12.530;2023-06-26T11:45:19;9.32;;;5.00;;
54947;SDS011;41113;41.882;12.530;2023-06-26T11:47:45;9.00;;;4.60;;
54947;SDS011;41113;41.882;12.530;2023-06-26T11:50:17;10.10;;;4.65;;
54947;SDS011;41113;41.882;12.530;2023-06-26T11:52:43;11.02;;;4.85;;
54947;SDS011;41113;41.882;12.530;2023-06-26T11:55:09;11.27;;;5.10;;
54947;SDS011;41113;41.882;12.530;2023-06-26T11:57:35;10.10;;;4.60;;
54947;SDS011;41113;41.882;12.530;2023-06-26T12:00:13;12.88;;;5.05;;
54947;SDS011;41113;41.882;12.530;2023-06-26T12:02:39;10.25;;;5.18;;
54947;SDS011;41113;41.882;12.530;2023-06-26T12:05:05;11.15;;;4.93;;
54947;SDS011;41113;41.882;12.530;2023-06-26T12:07:32;12.98;;;5.28;;
54947;SDS011;41113;41.882;12.530;2023-06-26T12:09:58;9.82;;;5.07;;
54947;SDS011;41113;41.882;12.530;2023-06-26T12:12:24;12.43;;;5.63;;
54947;SDS011;41113;41.882;12.530;2023-06-26T12:14:53;9.82;;;4.75;;
54947;SDS011;41113;41.882;12.530;2023-06-26T12:17:21;10.73;;;5.30;;
54947;SDS011;41113;41.882;12.530;2023-06-26T12:19:50;16.63;;;5.80;;
54947;SDS011;41113;41.882;12.530;2023-06-26T12:22:16;10.80;;;5.28;;
54947;SDS011;41113;41.882;12.530;2023-06-26T12:24:43;12.05;;;5.20;;
54947;SDS011;41113;41.882;12.530;2023-06-26T12:27:13;9.43;;;4.70;;
54947;SDS011;41113;41.882;12.530;2023-06-26T12:29:45;10.50;;;4.93;;
54947;SDS011;41113;41.882;12.530;2023-06-26T12:32:24;10.43;;;5.10;;
54947;SDS011;41113;41.882;12.530;2023-06-26T12:34:53;15.27;;;5.50;;
54947;SDS011;41113;41.882;12.530;2023-06-26T12:37:22;13.57;;;5.47;;
54947;SDS011;41113;41.882;12.530;2023-06-26T12:39:53;12.00;;;5.20;;
54947;SDS011;41113;41.882;12.530;2023-06-26T12:42:21;11.15;;;5.60;;
54947;SDS011;41113;41.882;12.530;2023-06-26T12:44:48;14.25;;;5.70;;
54947;SDS011;41113;41.882;12.530;2023-06-26T12:47:15;10.55;;;5.28;;
54947;SDS011;41113;41.882;12.530;2023-06-26T12:49:41;14.93;;;5.00;;
54947;SDS011;41113;41.882;12.530;2023-06-26T12:52:12;10.90;;;5.10;;
54947;SDS011;41113;41.882;12.530;2023-06-26T12:54:38;12.98;;;4.72;;
54947;SDS011;41113;41.882;12.530;2023-06-26T12:57:05;12.85;;;5.55;;
54947;SDS011;41113;41.882;12.530;2023-06-26T12:59:31;12.38;;;5.43;;
54947;SDS011;41113;41.882;12.530;2023-06-26T13:01:58;11.88;;;5.40;;
54947;SDS011;41113;41.882;12.530;2023-06-26T13:04:24;12.32;;;5.90;;
54947;SDS011;41113;41.882;12.530;2023-06-26T13:06:50;13.63;;;5.70;;
54947;SDS011;41113;41.882;12.530;2023-06-26T13:09:16;14.80;;;5.45;;
54947;SDS011;41113;41.882;12.530;2023-06-26T13:11:42;11.25;;;5.35;;
54947;SDS011;41113;41.882;12.530;2023-06-26T13:14:07;10.27;;;5.00;;
54947;SDS011;41113;41.882;12.530;2023-06-26T13:16:33;12.05;;;5.15;;
54947;SDS011;41113;41.882;12.530;2023-06-26T13:18:58;11.13;;;5.00;;
54947;SDS011;41113;41.882;12.530;2023-06-26T13:21:26;15.02;;;5.60;;
54947;SDS011;41113;41.882;12.530;2023-06-26T13:23:52;10.50;;;5.03;;
54947;SDS011;41113;41.882;12.530;2023-06-26T13:26:17;9.73;;;5.30;;
54947;SDS011;41113;41.882;12.530;2023-06-26T13:28:43;11.75;;;5.68;;
54947;SDS011;41113;41.882;12.530;2023-06-26T13:31:09;12.50;;;5.80;;
54947;SDS011;41113;41.882;12.530;2023-06-26T13:33:34;14.93;;;5.38;;
54947;SDS011;41113;41.882;12.530;2023-06-26T13:36:00;11.65;;;5.22;;
54947;SDS011;41113;41.882;12.530;2023-06-26T13:38:26;13.18;;;5.43;;
54947;SDS011;41113;41.882;12.530;2023-06-26T13:40:52;13.50;;;5.32;;
54947;SDS011;41113;41.882;12.530;2023-06-26T13:43:22;11.75;;;4.93;;
54947;SDS011;41113;41.882;12.530;2023-06-26T13:45:48;10.90;;;5.93;;
54947;SDS011;41113;41.882;12.530;2023-06-26T13:48:14;14.90;;;6.00;;
54947;SDS011;41113;41.882;12.530;2023-06-26T13:50:40;11.07;;;5.10;;
54947;SDS011;41113;41.882;12.530;2023-06-26T13:53:05;12.02;;;5.55;;
54947;SDS011;41113;41.882;12.530;2023-06-26T13:55:31;11.85;;;5.20;;
54947;SDS011;41113;41.882;12.530;2023-06-26T13:57:56;10.55;;;5.05;;
54947;SDS011;41113;41.882;12.530;2023-06-26T14:00:22;12.68;;;5.05;;
54947;SDS011;41113;41.882;12.530;2023-06-26T14:02:47;13.43;;;5.85;;
54947;SDS011;41113;41.882;12.530;2023-06-26T14:05:13;14.57;;;5.47;;
54947;SDS011;41113;41.882;12.530;2023-06-26T14:07:38;10.20;;;5.25;;
54947;SDS011;41113;41.882;12.530;2023-06-26T14:10:04;11.38;;;5.78;;
54947;SDS011;41113;41.882;12.530;2023-06-26T14:12:31;12.25;;;5.88;;
54947;SDS011;41113;41.882;12.530;2023-06-26T14:14:57;11.25;;;5.38;;
54947;SDS011;41113;41.882;12.530;2023-06-26T14:17:22;11.73;;;5.75;;
54947;SDS011;41113;41.882;12.530;2023-06-26T14:19:49;10.40;;;5.38;;
54947;SDS011;41113;41.882;12.530;2023-06-26T14:22:15;11.02;;;5.55;;
54947;SDS011;41113;41.882;12.530;2023-06-26T14:24:40;11.88;;;5.68;;
54947;SDS011;41113;41.882;12.530;2023-06-26T14:27:05;10.80;;;5.57;;
54947;SDS011;41113;41.882;12.530;2023-06-26T14:29:31;11.05;;;5.20;;
54947;SDS011;41113;41.882;12.530;2023-06-26T14:31:56;11.57;;;5.65;;